Time;durP1;ratioP1;P1;durP2;ratioP2;P2;SDS_P1;SDS_P2;PMS_P1;PMS_P2;Temp;Humidity;BMP_temperature;BMP_pressure;BME280_temperature;BME280_humidity;BME280_pressure;Samples;Min_cycle;Max_cycle;Signal;HPM_P1;HPM_P2
2023/03/27 00:01:48;;;;;;;;;;;4.80;99.90;;;;;;5023779;28;19913;-64
2023/03/27 00:04:14;;;;;;;;;;;4.80;99.90;;;;;;5027275;28;19920;-65
2023/03/27 00:06:40;;;;;;;;;;;4.80;99.90;;;;;;5030289;28;19920;-64
2023/03/27 00:09:07;;;;;;;;;;;4.80;99.90;;;;;;5030677;28;19913;-64
2023/03/27 00:11:33;;;;;;;;;;;4.80;99.90;;;;;;5029799;28;19921;-64
2023/03/27 00:13:58;;;;;;;;;;;4.70;99.90;;;;;;5029207;28;19921;-65
2023/03/27 00:16:25;;;;;;;;;;;4.70;99.90;;;;;;5039006;28;19944;-65
2023/03/27 00:18:51;;;;;;;;;;;4.70;99.90;;;;;;5030728;28;19921;-65
2023/03/27 00:21:18;;;;;;;;;;;4.60;99.90;;;;;;5026844;28;19913;-65
2023/03/27 00:23:43;;;;;;;;;;;4.60;99.90;;;;;;5030754;28;19917;-65
2023/03/27 00:26:10;;;;;;;;;;;4.60;99.90;;;;;;5028851;28;19940;-64
2023/03/27 00:28:36;;;;;;;;;;;4.60;99.90;;;;;;5029982;28;19967;-64
2023/03/27 00:31:01;;;;;;;;;;;4.50;99.90;;;;;;5026721;28;20326;-64
2023/03/27 00:33:27;;;;;;;;;;;4.50;99.90;;;;;;5024371;28;20290;-64
2023/03/27 00:35:52;;;;;;;;;;;4.50;99.90;;;;;;5027632;28;19916;-65
2023/03/27 00:38:19;;;;;;;;;;;4.50;99.90;;;;;;5029545;28;20398;-64
2023/03/27 00:40:45;;;;;;;;;;;4.40;99.90;;;;;;5028821;28;19913;-64
2023/03/27 00:43:22;;;;;;;;;;;4.30;99.90;;;;;;5026447;28;20326;-64
2023/03/27 00:45:49;;;;;;;;;;;4.30;99.90;;;;;;5027090;28;19943;-65
2023/03/27 00:48:15;;;;;;;;;;;4.30;99.90;;;;;;5023149;28;19931;-64
2023/03/27 00:50:43;;;;;;;;;;;4.20;99.90;;;;;;5025913;28;20298;-65
2023/03/27 00:53:12;;;;;;;;;;;4.20;99.90;;;;;;5023098;28;19917;-64
2023/03/27 00:55:39;;;;;;;;;;;4.10;99.90;;;;;;5026986;28;19923;-65
2023/03/27 00:58:25;;;;;;;;;;;4.10;99.90;;;;;;5028534;28;19913;-65
2023/03/27 01:00:52;;;;;;;;;;;4.10;99.90;;;;;;5022212;28;20011;-64
2023/03/27 01:03:18;;;;;;;;;;;4.10;99.90;;;;;;5028420;28;19917;-64
2023/03/27 01:05:44;;;;;;;;;;;4.10;99.90;;;;;;5030418;28;19916;-64
2023/03/27 01:08:10;;;;;;;;;;;4.00;99.90;;;;;;5027957;28;20347;-64
2023/03/27 01:10:42;;;;;;;;;;;4.00;99.90;;;;;;5028520;28;20008;-64
2023/03/27 01:13:20;;;;;;;;;;;4.00;99.90;;;;;;5023426;28;21005;-65
2023/03/27 01:15:53;;;;;;;;;;;3.90;99.90;;;;;;5027319;28;19913;-65
2023/03/27 01:18:19;;;;;;;;;;;3.90;99.90;;;;;;5025977;28;19956;-64
2023/03/27 01:21:04;;;;;;;;;;;3.90;99.90;;;;;;5028719;28;19995;-64
2023/03/27 01:23:46;;;;;;;;;;;3.90;99.90;;;;;;5027225;28;19952;-64
2023/03/27 01:26:17;;;;;;;;;;;3.90;99.90;;;;;;5025075;28;20331;-63
2023/03/27 01:28:54;;;;;;;;;;;3.90;99.90;;;;;;5027520;28;20310;-64
2023/03/27 01:31:39;;;;;;;;;;;3.90;99.90;;;;;;5029099;28;19913;-64
2023/03/27 01:34:20;;;;;;;;;;;3.90;99.90;;;;;;5020666;28;19921;-64
2023/03/27 01:37:05;;;;;;;;;;;3.90;99.90;;;;;;5027120;28;20407;-62
2023/03/27 01:39:30;;;;;;;;;;;3.80;99.90;;;;;;5026984;28;20278;-64
2023/03/27 01:42:12;;;;;;;;;;;3.90;99.90;;;;;;5025621;28;19921;-63
2023/03/27 01:44:46;;;;;;;;;;;3.80;99.90;;;;;;5026631;28;20302;-64
2023/03/27 01:47:26;;;;;;;;;;;3.90;99.90;;;;;;5025320;28;19936;-64
2023/03/27 01:49:55;;;;;;;;;;;3.80;99.90;;;;;;5025170;28;20345;-64
2023/03/27 01:52:26;;;;;;;;;;;3.80;99.90;;;;;;5025602;28;19917;-64
2023/03/27 01:54:57;;;;;;;;;;;3.80;99.90;;;;;;5026740;28;20089;-64
2023/03/27 01:57:27;;;;;;;;;;;3.80;99.90;;;;;;5025370;28;19928;-64
2023/03/27 01:59:54;;;;;;;;;;;3.80;99.90;;;;;;5024241;28;19913;-65
2023/03/27 02:02:27;;;;;;;;;;;3.80;99.90;;;;;;5027052;28;19920;-64
2023/03/27 02:05:02;;;;;;;;;;;3.70;99.90;;;;;;5026010;28;19917;-63
2023/03/27 02:07:31;;;;;;;;;;;3.70;99.90;;;;;;5025097;28;19913;-63
2023/03/27 02:09:59;;;;;;;;;;;3.70;99.90;;;;;;5025857;28;19919;-64
2023/03/27 02:12:31;;;;;;;;;;;3.80;99.90;;;;;;5024451;28;19913;-65
2023/03/27 02:15:01;;;;;;;;;;;3.70;99.90;;;;;;5025399;28;19925;-64
2023/03/27 02:17:27;;;;;;;;;;;3.70;99.90;;;;;;5025866;28;19924;-64
2023/03/27 02:19:58;;;;;;;;;;;3.70;99.90;;;;;;5034725;28;19910;-64
2023/03/27 02:22:23;;;;;;;;;;;3.70;99.90;;;;;;5026394;28;20407;-63
2023/03/27 02:24:52;;;;;;;;;;;3.70;99.90;;;;;;5024567;28;19963;-64
2023/03/27 02:27:24;;;;;;;;;;;3.70;99.90;;;;;;5024754;28;19920;-64
2023/03/27 02:30:09;;;;;;;;;;;3.60;99.90;;;;;;5028076;28;20008;-63
2023/03/27 02:32:47;;;;;;;;;;;3.60;99.90;;;;;;5027191;28;19921;-64
2023/03/27 02:35:16;;;;;;;;;;;3.60;99.90;;;;;;5028578;28;19913;-64
2023/03/27 02:37:44;;;;;;;;;;;3.60;99.90;;;;;;5024285;28;19921;-64
2023/03/27 02:40:20;;;;;;;;;;;3.60;99.90;;;;;;5026151;28;19920;-64
2023/03/27 02:42:45;;;;;;;;;;;3.60;99.90;;;;;;5025055;28;19917;-64
2023/03/27 02:45:31;;;;;;;;;;;3.70;99.90;;;;;;5027627;28;19921;-64
2023/03/27 02:48:23;;;;;;;;;;;3.60;99.90;;;;;;5024892;28;20514;-64
2023/03/27 02:50:54;;;;;;;;;;;3.60;99.90;;;;;;5013213;28;19922;-64
2023/03/27 02:53:22;;;;;;;;;;;3.60;99.90;;;;;;5031023;28;19917;-63
2023/03/27 02:55:52;;;;;;;;;;;3.60;99.90;;;;;;5029762;28;20023;-64
2023/03/27 02:58:25;;;;;;;;;;;3.60;99.90;;;;;;5027603;28;19921;-63
2023/03/27 03:00:51;;;;;;;;;;;3.60;99.90;;;;;;5030405;28;19927;-64
2023/03/27 03:03:36;;;;;;;;;;;3.60;99.90;;;;;;5030585;28;20000;-64
2023/03/27 03:06:06;;;;;;;;;;;3.50;99.90;;;;;;5029228;28;19960;-64
2023/03/27 03:08:37;;;;;;;;;;;3.50;99.90;;;;;;5028269;28;20016;-63
2023/03/27 03:11:03;;;;;;;;;;;3.50;99.90;;;;;;5030816;28;19913;-64
2023/03/27 03:13:29;;;;;;;;;;;3.50;99.90;;;;;;5026951;28;20367;-64
2023/03/27 03:15:54;;;;;;;;;;;3.50;99.90;;;;;;5030401;28;19927;-63
2023/03/27 03:18:19;;;;;;;;;;;3.50;99.90;;;;;;5030008;28;19921;-64
2023/03/27 03:20:45;;;;;;;;;;;3.50;99.90;;;;;;5030736;28;19917;-63
2023/03/27 03:23:10;;;;;;;;;;;3.40;99.90;;;;;;5029087;28;19937;-64
2023/03/27 03:25:36;;;;;;;;;;;3.40;99.90;;;;;;5031103;28;19913;-63
2023/03/27 03:28:06;;;;;;;;;;;3.40;99.90;;;;;;5026854;28;19945;-64
2023/03/27 03:30:32;;;;;;;;;;;3.40;99.90;;;;;;5027126;28;19917;-64
2023/03/27 03:32:58;;;;;;;;;;;3.40;99.90;;;;;;5029257;28;19917;-64
2023/03/27 03:35:24;;;;;;;;;;;3.40;99.90;;;;;;5031141;28;20388;-64
2023/03/27 03:37:50;;;;;;;;;;;3.30;99.90;;;;;;5029188;28;20008;-64
2023/03/27 03:40:16;;;;;;;;;;;3.30;99.90;;;;;;5030342;28;20386;-64
2023/03/27 03:43:00;;;;;;;;;;;3.30;99.90;;;;;;5024077;28;19917;-63
2023/03/27 03:45:25;;;;;;;;;;;3.30;99.90;;;;;;5024806;28;20147;-63
2023/03/27 03:47:51;;;;;;;;;;;3.20;99.90;;;;;;5028187;28;19925;-63
2023/03/27 03:50:16;;;;;;;;;;;3.30;99.90;;;;;;5029989;28;20307;-64
2023/03/27 03:52:43;;;;;;;;;;;3.20;99.90;;;;;;5029656;28;19935;-63
2023/03/27 03:55:10;;;;;;;;;;;3.20;99.90;;;;;;5028264;28;19929;-64
2023/03/27 03:57:36;;;;;;;;;;;3.20;99.90;;;;;;5024297;28;19920;-63
2023/03/27 04:00:07;;;;;;;;;;;3.20;99.90;;;;;;5028456;28;19996;-64
2023/03/27 04:02:33;;;;;;;;;;;3.10;99.90;;;;;;5027463;28;20295;-63
2023/03/27 04:04:59;;;;;;;;;;;3.10;99.90;;;;;;5031322;28;19913;-64
2023/03/27 04:07:30;;;;;;;;;;;3.10;99.90;;;;;;5028380;28;19982;-63
2023/03/27 04:09:58;;;;;;;;;;;3.10;99.90;;;;;;5027109;28;19913;-64
2023/03/27 04:12:24;;;;;;;;;;;3.10;99.90;;;;;;5026187;28;19917;-63
2023/03/27 04:14:49;;;;;;;;;;;3.10;99.90;;;;;;5028573;28;19932;-64
2023/03/27 04:17:14;;;;;;;;;;;3.10;99.90;;;;;;5027826;28;20375;-63
2023/03/27 04:19:40;;;;;;;;;;;3.00;99.90;;;;;;5029802;28;19921;-63
2023/03/27 04:22:06;;;;;;;;;;;3.00;99.90;;;;;;5028889;28;19921;-63
2023/03/27 04:24:31;;;;;;;;;;;3.00;99.90;;;;;;5030077;28;19913;-63
2023/03/27 04:27:00;;;;;;;;;;;3.00;99.90;;;;;;5028403;28;19920;-63
2023/03/27 04:29:29;;;;;;;;;;;3.00;99.90;;;;;;5027922;28;19995;-63
2023/03/27 04:31:56;;;;;;;;;;;3.00;99.90;;;;;;5027296;28;19921;-63
2023/03/27 04:34:22;;;;;;;;;;;3.00;99.90;;;;;;5027039;28;19917;-63
2023/03/27 04:36:49;;;;;;;;;;;3.00;99.90;;;;;;5024092;28;20805;-62
2023/03/27 04:39:16;;;;;;;;;;;3.00;99.90;;;;;;5026036;28;19971;-63
2023/03/27 04:41:48;;;;;;;;;;;3.00;99.90;;;;;;5025763;28;19921;-63
2023/03/27 04:44:16;;;;;;;;;;;3.00;99.90;;;;;;5026398;28;19913;-63
2023/03/27 04:46:42;;;;;;;;;;;2.90;99.90;;;;;;5027077;28;20371;-63
2023/03/27 04:49:08;;;;;;;;;;;2.90;99.90;;;;;;5027107;28;19913;-63
2023/03/27 04:51:33;;;;;;;;;;;2.90;99.90;;;;;;5026760;28;20012;-62
2023/03/27 04:54:03;;;;;;;;;;;2.90;99.90;;;;;;5028330;28;19971;-62
2023/03/27 04:56:30;;;;;;;;;;;2.90;99.90;;;;;;5024033;28;19955;-62
2023/03/27 04:58:55;;;;;;;;;;;2.90;99.90;;;;;;5027615;28;20364;-56
2023/03/27 05:01:21;;;;;;;;;;;2.90;99.90;;;;;;5025825;28;19919;-57
2023/03/27 05:03:48;;;;;;;;;;;2.90;99.90;;;;;;5019250;28;19913;-58
2023/03/27 05:06:14;;;;;;;;;;;3.00;99.90;;;;;;5020842;28;19967;-59
2023/03/27 05:08:40;;;;;;;;;;;2.90;99.90;;;;;;5026991;28;19913;-58
2023/03/27 05:11:06;;;;;;;;;;;2.90;99.90;;;;;;5025797;28;20437;-58
2023/03/27 05:13:32;;;;;;;;;;;2.90;99.90;;;;;;5028567;28;19917;-59
2023/03/27 05:15:58;;;;;;;;;;;3.00;99.90;;;;;;5028599;28;19909;-59
2023/03/27 05:18:23;;;;;;;;;;;3.00;99.90;;;;;;5028715;28;19917;-55
2023/03/27 05:20:48;;;;;;;;;;;2.90;99.90;;;;;;5026068;28;19922;-58
2023/03/27 05:23:14;;;;;;;;;;;2.90;99.90;;;;;;5029506;28;20000;-59
2023/03/27 05:25:41;;;;;;;;;;;2.90;99.90;;;;;;5025959;28;20005;-57
2023/03/27 05:28:07;;;;;;;;;;;2.90;99.90;;;;;;5024041;28;19913;-57
2023/03/27 05:30:32;;;;;;;;;;;2.90;99.90;;;;;;5021694;28;19921;-58
2023/03/27 05:32:58;;;;;;;;;;;2.90;99.90;;;;;;5022190;28;19913;-60
2023/03/27 05:35:24;;;;;;;;;;;2.90;99.90;;;;;;5025695;28;19952;-58
2023/03/27 05:37:51;;;;;;;;;;;2.90;99.90;;;;;;5027086;28;19913;-58
2023/03/27 05:40:20;;;;;;;;;;;2.90;99.90;;;;;;5025961;28;19917;-56
2023/03/27 05:42:46;;;;;;;;;;;2.90;99.90;;;;;;5027170;28;19943;-57
2023/03/27 05:45:12;;;;;;;;;;;2.90;99.90;;;;;;5025869;28;19913;-58
2023/03/27 05:47:43;;;;;;;;;;;2.90;99.90;;;;;;5028006;28;19916;-57
2023/03/27 05:50:09;;;;;;;;;;;3.00;99.90;;;;;;5028765;28;20393;-58
2023/03/27 05:52:34;;;;;;;;;;;3.00;99.90;;;;;;5023099;28;20007;-57
2023/03/27 05:54:59;;;;;;;;;;;3.10;99.90;;;;;;5027835;28;19924;-58
2023/03/27 05:57:25;;;;;;;;;;;3.10;99.90;;;;;;5026061;28;20064;-54
2023/03/27 05:59:51;;;;;;;;;;;3.20;99.90;;;;;;5026362;28;19920;-56
2023/03/27 06:02:17;;;;;;;;;;;3.20;99.90;;;;;;5026364;28;20383;-55
2023/03/27 06:04:43;;;;;;;;;;;3.30;99.90;;;;;;5025160;28;19919;-58
2023/03/27 06:07:09;;;;;;;;;;;3.30;99.90;;;;;;5026813;28;19913;-55
2023/03/27 06:09:35;;;;;;;;;;;3.40;99.90;;;;;;5028178;28;19925;-54
2023/03/27 06:12:00;;;;;;;;;;;3.40;99.90;;;;;;5027894;28;19909;-57
2023/03/27 06:14:26;;;;;;;;;;;3.50;99.90;;;;;;5025667;28;19925;-58
2023/03/27 06:16:51;;;;;;;;;;;3.60;99.90;;;;;;5026635;28;19921;-58
2023/03/27 06:19:17;;;;;;;;;;;3.60;99.90;;;;;;5026938;28;20000;-60
2023/03/27 06:21:43;;;;;;;;;;;3.70;99.90;;;;;;5031264;28;19979;-59
2023/03/27 06:24:09;;;;;;;;;;;3.70;99.90;;;;;;5030019;28;20612;-56
2023/03/27 06:26:34;;;;;;;;;;;3.80;99.90;;;;;;5030843;28;19921;-59
2023/03/27 06:29:00;;;;;;;;;;;3.80;99.90;;;;;;5031968;28;20342;-59
2023/03/27 06:31:26;;;;;;;;;;;3.80;99.90;;;;;;5027633;28;20050;-58
2023/03/27 06:33:51;;;;;;;;;;;3.90;99.90;;;;;;5032927;28;19964;-57
2023/03/27 06:36:17;;;;;;;;;;;3.90;99.90;;;;;;5032045;28;20044;-57
2023/03/27 06:38:42;;;;;;;;;;;4.00;99.90;;;;;;5032720;28;19948;-60
2023/03/27 06:41:08;;;;;;;;;;;4.00;99.90;;;;;;5032130;28;20522;-57
2023/03/27 06:43:33;;;;;;;;;;;4.10;99.90;;;;;;5033649;28;19913;-59
2023/03/27 06:45:59;;;;;;;;;;;4.20;99.90;;;;;;5028670;28;19962;-58
2023/03/27 06:48:24;;;;;;;;;;;4.30;99.90;;;;;;5031994;28;19997;-56
2023/03/27 06:50:51;;;;;;;;;;;4.30;99.90;;;;;;5032081;28;19956;-59
2023/03/27 06:53:17;;;;;;;;;;;4.40;99.90;;;;;;5030518;28;19921;-58
2023/03/27 06:55:42;;;;;;;;;;;4.40;99.90;;;;;;5031425;28;19951;-58
2023/03/27 06:58:12;;;;;;;;;;;4.40;99.90;;;;;;5030796;28;19975;-57
2023/03/27 07:00:39;;;;;;;;;;;4.50;99.90;;;;;;5026162;28;20209;-58
2023/03/27 07:03:07;;;;;;;;;;;4.40;99.90;;;;;;5032237;28;19920;-58
2023/03/27 07:05:35;;;;;;;;;;;4.40;99.90;;;;;;5031861;28;20047;-57
2023/03/27 07:08:05;;;;;;;;;;;4.40;99.90;;;;;;5031648;28;20356;-55
2023/03/27 07:10:30;;;;;;;;;;;4.40;99.90;;;;;;5031254;28;19914;-58
2023/03/27 07:12:56;;;;;;;;;;;4.40;99.90;;;;;;5030411;28;19921;-60
2023/03/27 07:15:22;;;;;;;;;;;4.40;99.90;;;;;;5031506;28;19916;-58
2023/03/27 07:17:51;;;;;;;;;;;4.40;99.90;;;;;;5030602;28;19913;-59
2023/03/27 07:20:17;;;;;;;;;;;4.40;99.90;;;;;;5030678;28;19999;-57
2023/03/27 07:22:42;;;;;;;;;;;4.40;99.90;;;;;;5029182;28;19963;-58
2023/03/27 07:25:09;;;;;;;;;;;4.40;99.90;;;;;;5032292;28;20196;-58
2023/03/27 07:27:34;;;;;;;;;;;4.50;99.90;;;;;;5032729;28;19925;-58
2023/03/27 07:30:00;;;;;;;;;;;4.60;99.90;;;;;;5032966;28;19959;-57
2023/03/27 07:32:28;;;;;;;;;;;4.50;99.90;;;;;;5029961;28;19913;-58
2023/03/27 07:34:54;;;;;;;;;;;4.60;99.90;;;;;;5031027;28;19963;-58
2023/03/27 07:37:21;;;;;;;;;;;4.60;99.90;;;;;;5028176;28;20360;-57
2023/03/27 07:39:47;;;;;;;;;;;4.60;99.90;;;;;;5031762;28;19909;-58
2023/03/27 07:42:12;;;;;;;;;;;4.70;99.90;;;;;;5031314;28;19963;-58
2023/03/27 07:44:37;;;;;;;;;;;4.70;99.90;;;;;;5046465;28;19913;-56
2023/03/27 07:47:03;;;;;;;;;;;4.80;99.90;;;;;;5031430;28;19916;-57
2023/03/27 07:49:28;;;;;;;;;;;4.90;99.90;;;;;;5028964;28;19925;-58
2023/03/27 07:51:54;;;;;;;;;;;4.90;99.90;;;;;;5027576;28;20348;-58
2023/03/27 07:54:20;;;;;;;;;;;5.00;99.90;;;;;;5026234;28;19924;-59
2023/03/27 07:56:46;;;;;;;;;;;4.90;99.90;;;;;;5025167;28;19917;-58
2023/03/27 07:59:11;;;;;;;;;;;5.00;99.90;;;;;;5041814;28;19966;-59
2023/03/27 08:01:37;;;;;;;;;;;5.00;99.90;;;;;;5025094;28;19920;-54
2023/03/27 08:04:02;;;;;;;;;;;5.00;99.90;;;;;;5027223;28;19960;-55
2023/03/27 08:06:28;;;;;;;;;;;5.10;99.90;;;;;;5027741;28;19917;-57
2023/03/27 08:08:54;;;;;;;;;;;5.20;99.90;;;;;;5031693;28;20434;-55
2023/03/27 08:11:19;;;;;;;;;;;5.20;99.90;;;;;;5029055;28;19944;-55
2023/03/27 08:13:45;;;;;;;;;;;5.30;99.90;;;;;;5026287;28;19944;-59
2023/03/27 08:16:10;;;;;;;;;;;5.40;99.90;;;;;;5024364;28;19927;-58
2023/03/27 08:18:36;;;;;;;;;;;5.50;99.90;;;;;;5023564;28;20293;-58
2023/03/27 08:21:03;;;;;;;;;;;5.60;99.90;;;;;;5026410;28;19940;-56
2023/03/27 08:23:29;;;;;;;;;;;5.70;99.90;;;;;;5030221;28;20326;-60
2023/03/27 08:25:59;;;;;;;;;;;5.80;99.90;;;;;;5030708;28;19913;-58
2023/03/27 08:28:26;;;;;;;;;;;5.80;99.90;;;;;;5032087;28;19960;-60
2023/03/27 08:30:51;;;;;;;;;;;5.80;99.90;;;;;;5031951;28;19909;-58
2023/03/27 08:33:18;;;;;;;;;;;6.00;99.90;;;;;;5031450;28;20015;-59
2023/03/27 08:35:46;;;;;;;;;;;6.10;99.90;;;;;;5030034;28;19940;-57
2023/03/27 08:38:12;;;;;;;;;;;6.20;99.90;;;;;;5029935;28;20000;-56
2023/03/27 08:40:37;;;;;;;;;;;6.20;99.90;;;;;;5027854;28;19999;-59
2023/03/27 08:43:06;;;;;;;;;;;6.30;99.90;;;;;;5028391;28;20430;-58
2023/03/27 08:45:37;;;;;;;;;;;6.30;99.90;;;;;;5031380;28;20355;-57
2023/03/27 08:48:06;;;;;;;;;;;6.30;99.90;;;;;;5029975;28;19936;-58
2023/03/27 08:50:41;;;;;;;;;;;6.30;99.90;;;;;;5030201;28;19920;-57
2023/03/27 08:53:12;;;;;;;;;;;6.40;99.90;;;;;;5030298;28;19913;-57
2023/03/27 08:55:40;;;;;;;;;;;6.50;99.90;;;;;;5029017;28;19925;-58
2023/03/27 08:58:14;;;;;;;;;;;6.50;99.90;;;;;;5030427;28;19917;-57
2023/03/27 09:00:40;;;;;;;;;;;6.30;99.90;;;;;;5030309;28;19982;-57
2023/03/27 09:03:19;;;;;;;;;;;6.30;99.90;;;;;;5028888;28;19932;-58
2023/03/27 09:05:56;;;;;;;;;;;6.20;99.90;;;;;;5030135;28;19924;-59
2023/03/27 09:08:26;;;;;;;;;;;6.20;99.90;;;;;;5026947;28;19913;-59
2023/03/27 09:11:18;;;;;;;;;;;6.10;99.90;;;;;;5031394;28;20011;-57
2023/03/27 09:13:45;;;;;;;;;;;6.10;99.90;;;;;;4993403;28;19924;-58
2023/03/27 09:16:14;;;;;;;;;;;6.10;99.90;;;;;;5031158;28;19913;-59
2023/03/27 09:18:51;;;;;;;;;;;6.10;99.90;;;;;;5027223;28;19910;-58
2023/03/27 09:21:24;;;;;;;;;;;6.20;99.90;;;;;;5024685;28;20000;-59
2023/03/27 09:23:52;;;;;;;;;;;6.30;99.90;;;;;;5030094;28;19909;-59
2023/03/27 09:26:24;;;;;;;;;;;6.50;99.90;;;;;;5030892;28;19913;-59
2023/03/27 09:29:00;;;;;;;;;;;6.60;99.90;;;;;;5031518;28;19909;-59
2023/03/27 09:31:27;;;;;;;;;;;6.70;99.90;;;;;;5030894;28;19984;-58
2023/03/27 09:33:54;;;;;;;;;;;6.80;99.90;;;;;;5030929;28;19966;-55
2023/03/27 09:36:20;;;;;;;;;;;6.80;99.90;;;;;;5031198;28;19921;-59
2023/03/27 09:38:49;;;;;;;;;;;6.90;99.90;;;;;;5031661;28;19916;-57
2023/03/27 09:41:37;;;;;;;;;;;7.10;99.90;;;;;;5031361;28;19913;-57
2023/03/27 09:44:03;;;;;;;;;;;7.40;99.90;;;;;;5028906;28;19972;-59
2023/03/27 09:46:28;;;;;;;;;;;7.40;99.90;;;;;;5031289;28;20539;-58
2023/03/27 09:49:12;;;;;;;;;;;7.30;99.90;;;;;;5031323;28;19920;-57
2023/03/27 09:51:40;;;;;;;;;;;7.30;99.90;;;;;;5031164;28;19932;-55
2023/03/27 09:54:06;;;;;;;;;;;7.30;99.90;;;;;;5030814;28;20353;-58
2023/03/27 09:56:39;;;;;;;;;;;7.60;99.90;;;;;;5034675;28;20011;-57
2023/03/27 09:59:28;;;;;;;;;;;7.70;99.90;;;;;;5035091;28;19913;-58
2023/03/27 10:01:55;;;;;;;;;;;7.50;99.90;;;;;;5034566;28;19994;-58
2023/03/27 10:04:22;;;;;;;;;;;7.30;99.90;;;;;;5034926;28;19924;-57
2023/03/27 10:06:58;;;;;;;;;;;7.00;99.90;;;;;;5034960;28;20306;-55
2023/03/27 10:09:25;;;;;;;;;;;7.00;99.90;;;;;;5035004;28;19909;-56
2023/03/27 10:11:58;;;;;;;;;;;6.70;99.90;;;;;;5035014;28;19917;-56
2023/03/27 10:14:25;;;;;;;;;;;6.60;99.90;;;;;;5033291;28;19924;-57
2023/03/27 10:16:50;;;;;;;;;;;6.60;99.90;;;;;;5034948;28;19916;-56
2023/03/27 10:19:21;;;;;;;;;;;6.90;99.90;;;;;;5032536;28;19917;-58
2023/03/27 10:21:46;;;;;;;;;;;7.30;99.90;;;;;;5032758;28;20295;-56
2023/03/27 10:24:31;;;;;;;;;;;7.60;99.90;;;;;;5032872;28;19913;-57
2023/03/27 10:26:58;;;;;;;;;;;7.70;99.90;;;;;;5032766;28;20334;-59
2023/03/27 10:29:25;;;;;;;;;;;8.10;99.90;;;;;;5034685;28;19909;-58
2023/03/27 10:31:55;;;;;;;;;;;8.10;99.90;;;;;;5033699;28;19915;-57
2023/03/27 10:34:26;;;;;;;;;;;8.20;99.90;;;;;;5033694;28;19921;-59
2023/03/27 10:36:53;;;;;;;;;;;8.60;99.90;;;;;;5033759;28;20552;-57
2023/03/27 10:39:19;;;;;;;;;;;9.00;99.90;;;;;;5034490;28;19916;-58
2023/03/27 10:41:46;;;;;;;;;;;8.70;99.90;;;;;;5032875;28;20000;-56
2023/03/27 10:44:17;;;;;;;;;;;8.30;99.90;;;;;;5033994;28;20430;-56
2023/03/27 10:46:42;;;;;;;;;;;7.80;99.90;;;;;;5032223;28;19955;-59
2023/03/27 10:49:24;;;;;;;;;;;7.90;99.90;;;;;;5034129;28;19957;-56
2023/03/27 10:51:51;;;;;;;;;;;8.00;99.90;;;;;;5033271;28;19910;-56
2023/03/27 10:54:35;;;;;;;;;;;8.40;99.90;;;;;;5033892;28;19913;-58
2023/03/27 10:57:01;;;;;;;;;;;8.70;99.90;;;;;;5033825;28;19927;-57
2023/03/27 10:59:30;;;;;;;;;;;8.60;99.90;;;;;;5034242;28;20370;-55
2023/03/27 11:01:58;;;;;;;;;;;8.60;99.90;;;;;;5034061;28;19916;-56
2023/03/27 11:04:36;;;;;;;;;;;9.00;99.90;;;;;;5033667;28;20367;-56
2023/03/27 11:07:02;;;;;;;;;;;9.10;99.90;;;;;;5033300;28;19909;-57
2023/03/27 11:09:41;;;;;;;;;;;9.10;99.90;;;;;;5033603;28;20322;-54
2023/03/27 11:12:12;;;;;;;;;;;8.90;99.90;;;;;;5034173;28;19916;-54
2023/03/27 11:14:44;;;;;;;;;;;8.70;99.90;;;;;;5033794;28;20000;-53
2023/03/27 11:17:12;;;;;;;;;;;8.80;99.90;;;;;;5033876;28;19909;-54
2023/03/27 11:19:37;;;;;;;;;;;9.20;99.90;;;;;;5032415;28;19916;-55
2023/03/27 11:22:15;;;;;;;;;;;9.40;99.90;;;;;;5033578;28;19909;-56
2023/03/27 11:24:50;;;;;;;;;;;9.10;99.90;;;;;;5033373;28;19910;-59
2023/03/27 11:27:41;;;;;;;;;;;8.90;99.90;;;;;;5032130;28;19939;-55
2023/03/27 11:30:07;;;;;;;;;;;8.60;99.90;;;;;;5027919;28;19996;-56
2023/03/27 11:32:55;;;;;;;;;;;8.50;99.90;;;;;;5031194;28;20015;-58
2023/03/27 11:35:22;;;;;;;;;;;8.60;99.90;;;;;;4988117;28;20291;-56
2023/03/27 11:37:52;;;;;;;;;;;8.20;99.90;;;;;;5026602;28;20003;-58
2023/03/27 11:40:30;;;;;;;;;;;8.10;99.90;;;;;;5028481;28;19913;-53
2023/03/27 11:42:56;;;;;;;;;;;7.90;99.90;;;;;;5019598;28;19921;-55
2023/03/27 11:45:26;;;;;;;;;;;7.90;99.90;;;;;;5027683;28;19919;-54
2023/03/27 11:48:10;;;;;;;;;;;7.70;99.90;;;;;;5028468;28;19913;-54
2023/03/27 11:50:56;;;;;;;;;;;8.00;99.90;;;;;;5033459;28;19923;-56
2023/03/27 11:53:28;;;;;;;;;;;8.60;99.90;;;;;;4993838;28;19983;-54
2023/03/27 11:56:01;;;;;;;;;;;9.30;99.90;;;;;;5029403;28;19917;-57
2023/03/27 11:58:31;;;;;;;;;;;9.50;99.90;;;;;;5029637;28;20436;-57
2023/03/27 12:01:06;;;;;;;;;;;9.10;99.90;;;;;;5029124;28;20012;-57
2023/03/27 12:03:51;;;;;;;;;;;8.80;99.90;;;;;;5023438;28;19959;-57
2023/03/27 12:06:22;;;;;;;;;;;8.30;99.90;;;;;;5033403;28;20399;-57
2023/03/27 12:08:49;;;;;;;;;;;8.10;99.90;;;;;;5026013;28;20000;-58
2023/03/27 12:11:16;;;;;;;;;;;7.60;99.90;;;;;;5025884;28;20279;-55
2023/03/27 12:14:00;;;;;;;;;;;7.20;99.90;;;;;;5026943;28;20477;-55
2023/03/27 12:16:40;;;;;;;;;;;7.00;99.90;;;;;;5025045;28;19921;-57
2023/03/27 12:19:06;;;;;;;;;;;6.80;99.90;;;;;;5029444;28;19917;-58
2023/03/27 12:21:34;;;;;;;;;;;6.80;99.90;;;;;;5029226;28;19913;-58
2023/03/27 12:24:00;;;;;;;;;;;7.00;99.90;;;;;;5025408;28;20543;-55
2023/03/27 12:26:48;;;;;;;;;;;7.50;99.90;;;;;;5030644;28;19920;-56
2023/03/27 12:29:14;;;;;;;;;;;7.50;99.90;;;;;;5017876;28;20461;-58
2023/03/27 12:31:47;;;;;;;;;;;7.40;99.90;;;;;;5028337;28;20059;-57
2023/03/27 12:34:30;;;;;;;;;;;7.10;99.90;;;;;;5028696;28;19940;-55
2023/03/27 12:36:57;;;;;;;;;;;7.00;99.90;;;;;;5031158;28;19917;-58
2023/03/27 12:39:25;;;;;;;;;;;6.90;99.90;;;;;;5028567;28;19921;-55
2023/03/27 12:41:50;;;;;;;;;;;6.80;99.90;;;;;;5029371;28;19920;-57
2023/03/27 12:44:17;;;;;;;;;;;7.20;99.90;;;;;;5027223;28;19913;-57
2023/03/27 12:46:42;;;;;;;;;;;7.60;99.90;;;;;;5021121;28;19913;-56
2023/03/27 12:49:10;;;;;;;;;;;8.00;99.90;;;;;;5023102;28;19913;-55
2023/03/27 12:52:01;;;;;;;;;;;8.40;99.90;;;;;;5028252;28;20416;-58
2023/03/27 12:54:28;;;;;;;;;;;8.80;99.90;;;;;;5025022;28;20011;-55
2023/03/27 12:57:05;;;;;;;;;;;9.10;99.90;;;;;;5028234;28;19928;-56
2023/03/27 12:59:33;;;;;;;;;;;9.20;97.70;;;;;;5026265;28;19921;-54
2023/03/27 13:01:58;;;;;;;;;;;9.40;98.50;;;;;;5029105;28;19914;-57
2023/03/27 13:04:23;;;;;;;;;;;9.80;99.90;;;;;;5028657;28;19921;-55
2023/03/27 13:06:49;;;;;;;;;;;9.60;99.90;;;;;;5026531;28;19913;-57
2023/03/27 13:09:15;;;;;;;;;;;9.10;99.90;;;;;;5026286;28;19917;-57
2023/03/27 13:11:48;;;;;;;;;;;8.80;99.90;;;;;;5028574;28;20406;-58
2023/03/27 13:14:20;;;;;;;;;;;8.50;99.90;;;;;;5026194;28;20393;-57
2023/03/27 13:17:04;;;;;;;;;;;8.60;99.90;;;;;;5025032;28;19976;-56
2023/03/27 13:19:33;;;;;;;;;;;9.30;99.90;;;;;;5023320;28;19913;-57
2023/03/27 13:21:58;;;;;;;;;;;9.80;99.90;;;;;;5022701;28;20012;-57
2023/03/27 13:24:30;;;;;;;;;;;10.00;99.90;;;;;;5024340;28;20008;-57
2023/03/27 13:26:55;;;;;;;;;;;10.40;99.90;;;;;;5025713;28;19917;-56
2023/03/27 13:29:22;;;;;;;;;;;10.40;99.90;;;;;;5023542;28;19940;-56
2023/03/27 13:31:48;;;;;;;;;;;10.20;99.90;;;;;;5024511;28;20011;-58
2023/03/27 13:34:26;;;;;;;;;;;9.50;99.90;;;;;;5026424;28;19924;-58
2023/03/27 13:36:52;;;;;;;;;;;9.10;99.90;;;;;;5027689;28;19941;-56
2023/03/27 13:39:23;;;;;;;;;;;8.40;99.90;;;;;;5031916;28;20007;-55
2023/03/27 13:41:51;;;;;;;;;;;8.30;99.90;;;;;;5031008;28;19923;-56
2023/03/27 13:44:23;;;;;;;;;;;8.00;99.90;;;;;;5026241;28;19975;-57
2023/03/27 13:46:56;;;;;;;;;;;8.00;99.90;;;;;;5023915;28;19940;-55
2023/03/27 13:49:44;;;;;;;;;;;8.10;99.90;;;;;;5029011;28;19940;-57
2023/03/27 13:52:10;;;;;;;;;;;8.20;99.90;;;;;;5022517;28;19916;-54
2023/03/27 13:54:50;;;;;;;;;;;8.30;99.90;;;;;;5021846;28;19921;-57
2023/03/27 13:57:32;;;;;;;;;;;8.50;99.90;;;;;;5026686;28;19939;-58
2023/03/27 14:00:07;;;;;;;;;;;8.90;99.90;;;;;;5026645;28;20003;-56
2023/03/27 14:02:48;;;;;;;;;;;9.10;99.90;;;;;;5024102;28;19917;-55
2023/03/27 14:05:14;;;;;;;;;;;9.50;99.90;;;;;;5020977;28;19913;-58
2023/03/27 14:07:51;;;;;;;;;;;9.90;99.90;;;;;;5027164;28;20582;-58
2023/03/27 14:10:22;;;;;;;;;;;9.70;99.90;;;;;;5025603;28;19940;-56
2023/03/27 14:12:59;;;;;;;;;;;9.60;99.90;;;;;;5021800;28;19979;-57
2023/03/27 14:15:37;;;;;;;;;;;9.20;99.90;;;;;;5020277;28;19936;-57
2023/03/27 14:18:21;;;;;;;;;;;9.40;99.90;;;;;;5024475;28;19963;-56
2023/03/27 14:20:53;;;;;;;;;;;9.60;99.90;;;;;;5025095;28;20032;-57
2023/03/27 14:23:20;;;;;;;;;;;9.60;99.90;;;;;;5025472;28;20292;-57
2023/03/27 14:25:56;;;;;;;;;;;9.60;99.90;;;;;;5022273;28;19913;-54
2023/03/27 14:28:28;;;;;;;;;;;9.20;99.90;;;;;;5025757;28;20411;-57
2023/03/27 14:30:54;;;;;;;;;;;9.20;99.90;;;;;;5026984;28;19921;-57
2023/03/27 14:33:20;;;;;;;;;;;8.80;99.90;;;;;;5025043;28;19913;-57
2023/03/27 14:35:55;;;;;;;;;;;8.80;99.90;;;;;;5026103;28;20314;-55
2023/03/27 14:38:27;;;;;;;;;;;8.70;99.90;;;;;;5028149;28;19921;-55
2023/03/27 14:40:57;;;;;;;;;;;8.50;99.90;;;;;;5029314;28;21320;-57
2023/03/27 14:43:24;;;;;;;;;;;8.60;99.90;;;;;;5031407;28;20379;-55
2023/03/27 14:45:51;;;;;;;;;;;8.60;99.90;;;;;;5028707;28;19913;-58